Time;durP1;ratioP1;P1;durP2;ratioP2;P2;SDS_P1;SDS_P2;PMS_P1;PMS_P2;Temp;Humidity;BMP_temperature;BMP_pressure;BME280_temperature;BME280_humidity;BME280_pressure;Samples;Min_cycle;Max_cycle;Signal;HPM_P1;HPM_P2
2023/07/09 07:35:14;;;;;;;2.90;1.90;;;24.90;92.30;;;;;;4956505;28;20531;-86
2023/07/09 07:37:40;;;;;;;1.83;1.73;;;24.90;92.40;;;;;;4958785;28;20449;-83
2023/07/09 07:40:08;;;;;;;2.57;1.90;;;24.90;92.40;;;;;;4958670;28;20447;-85
2023/07/09 07:42:35;;;;;;;2.40;2.20;;;25.00;92.40;;;;;;4957324;29;20447;-82
2023/07/09 07:45:02;;;;;;;1.87;1.50;;;25.00;92.40;;;;;;4957781;29;20491;-84
2023/07/09 07:47:29;;;;;;;1.63;1.50;;;25.00;92.40;;;;;;4957341;29;20461;-83
2023/07/09 07:49:56;;;;;;;2.57;2.00;;;25.00;92.40;;;;;;4957490;28;20445;-84
2023/07/09 07:52:25;;;;;;;1.90;1.80;;;25.00;92.30;;;;;;4957817;29;20453;-83
2023/07/09 07:54:52;;;;;;;2.53;1.90;;;25.00;92.50;;;;;;4957728;29;20458;-82
2023/07/09 07:57:19;;;;;;;1.97;1.83;;;25.00;92.60;;;;;;4957928;29;20959;-83
2023/07/09 07:59:47;;;;;;;2.30;2.10;;;25.00;92.70;;;;;;4957706;29;20442;-83
2023/07/09 08:02:15;;;;;;;1.87;1.77;;;25.00;92.80;;;;;;4957105;29;20456;-82
2023/07/09 08:04:42;;;;;;;1.77;1.67;;;25.00;92.60;;;;;;4956368;28;20485;-82
2023/07/09 08:07:10;;;;;;;1.97;1.87;;;25.00;92.40;;;;;;4956714;28;20529;-82
2023/07/09 08:09:39;;;;;;;2.83;1.80;;;25.00;92.50;;;;;;4956782;29;20453;-83
2023/07/09 08:12:11;;;;;;;2.20;1.77;;;25.00;92.60;;;;;;4956787;29;20446;-83
2023/07/09 08:14:38;;;;;;;2.67;2.17;;;25.00;92.60;;;;;;4956820;29;20537;-82
2023/07/09 08:17:06;;;;;;;2.40;2.20;;;25.00;92.60;;;;;;4956685;29;20937;-82
2023/07/09 08:19:33;;;;;;;2.67;2.47;;;25.00;92.60;;;;;;4957747;29;20454;-82
2023/07/09 08:22:00;;;;;;;2.40;2.20;;;25.00;92.50;;;;;;4957477;28;20973;-84
2023/07/09 08:24:26;;;;;;;2.70;2.50;;;25.00;92.50;;;;;;4957487;29;20449;-85
2023/07/09 08:27:00;;;;;;;2.27;2.07;;;25.00;92.30;;;;;;4957146;29;20449;-84
2023/07/09 08:29:26;;;;;;;3.47;2.53;;;25.00;92.40;;;;;;4957087;29;20525;-84
2023/07/09 08:31:53;;;;;;;2.70;2.20;;;25.00;92.40;;;;;;4956621;28;20460;-83
2023/07/09 08:34:20;;;;;;;2.43;2.23;;;25.10;92.40;;;;;;4956901;28;20483;-84
2023/07/09 08:40:14;;;;;;;2.70;2.50;;;25.10;92.60;;;;;;4957097;29;20485;-84
2023/07/09 08:42:45;;;;;;;5.00;2.63;;;25.00;92.60;;;;;;4957154;29;20560;-87
2023/07/09 08:45:30;;;;;;;6.37;3.90;;;25.00;92.70;;;;;;4957094;29;20579;-82
2023/07/09 08:48:04;;;;;;;3.80;3.50;;;25.10;92.90;;;;;;4957595;29;20453;-90
2023/07/09 08:50:40;;;;;;;3.07;2.73;;;25.10;93.20;;;;;;4957900;28;20479;-90
2023/07/09 09:23:41;;;;;;;34.80;30.90;;;25.10;93.10;;;;;;4955103;29;20440;-82
2023/07/09 09:26:18;;;;;;;19.10;17.20;;;25.10;93.30;;;;;;4935511;29;20498;-90
2023/07/09 09:28:45;;;;;;;16.57;14.73;;;25.10;92.90;;;;;;4937838;29;20486;-89
2023/07/09 09:31:12;;;;;;;18.50;16.60;;;25.10;93.20;;;;;;4941734;29;20480;-83
2023/07/09 11:01:50;;;;;;;9.20;7.30;;;25.30;93.60;;;;;;5087188;23;20503;-96
2023/07/09 11:04:28;;;;;;;8.23;7.00;;;25.30;93.80;;;;;;5004063;28;20483;-94
2023/07/09 11:06:57;;;;;;;8.40;7.60;;;25.40;93.80;;;;;;5001412;28;20912;-93
2023/07/09 11:09:29;;;;;;;9.20;7.33;;;25.20;93.70;;;;;;4999911;28;20458;-92
2023/07/09 11:12:19;;;;;;;8.93;6.70;;;25.40;93.70;;;;;;4999318;28;20449;-93
2023/07/09 11:15:05;;;;;;;8.83;7.27;;;25.40;93.70;;;;;;4998906;28;20447;-93
2023/07/09 11:20:44;;;;;;;7.37;6.60;;;25.40;93.70;;;;;;4977180;28;20536;-85
2023/07/09 11:26:34;;;;;;;6.30;5.70;;;25.50;93.70;;;;;;4990786;28;20567;-93
2023/07/09 11:29:16;;;;;;;8.97;5.87;;;25.40;93.80;;;;;;4981637;28;20473;-90
2023/07/09 11:31:45;;;;;;;8.30;5.53;;;25.40;93.90;;;;;;4982460;28;20450;-93
2023/07/09 11:34:20;;;;;;;5.97;5.33;;;25.40;94.00;;;;;;4984929;28;20452;-94
2023/07/09 11:36:49;;;;;;;11.13;5.97;;;25.40;94.20;;;;;;4979289;28;20475;-92
2023/07/09 11:39:22;;;;;;;5.80;5.30;;;25.50;94.30;;;;;;4978571;28;20466;-92
2023/07/09 11:41:49;;;;;;;6.53;5.80;;;25.50;94.10;;;;;;4979562;28;20446;-92
2023/07/09 11:44:18;;;;;;;6.10;5.40;;;25.50;94.10;;;;;;4978381;28;20852;-84
2023/07/09 11:46:55;;;;;;;6.87;5.90;;;25.50;93.90;;;;;;4978323;28;20493;-93
2023/07/09 11:49:28;;;;;;;6.80;5.90;;;25.50;94.00;;;;;;4977807;28;20504;-92
2023/07/09 11:52:00;;;;;;;6.60;6.00;;;25.50;94.10;;;;;;4978728;28;20444;-92
2023/07/09 11:54:27;;;;;;;6.07;5.40;;;25.50;94.20;;;;;;4978378;28;20458;-93
2023/07/09 11:56:58;;;;;;;8.70;5.40;;;25.50;94.10;;;;;;4978803;28;20466;-92
2023/07/09 11:59:25;;;;;;;9.17;6.13;;;25.50;94.20;;;;;;4978262;28;20537;-91
2023/07/09 12:01:55;;;;;;;5.97;5.43;;;25.50;94.20;;;;;;4978151;28;20787;-92
2023/07/09 12:04:28;;;;;;;5.33;4.83;;;25.50;94.10;;;;;;4978931;28;20454;-92
2023/07/09 12:07:00;;;;;;;6.80;5.00;;;25.60;94.20;;;;;;4976790;28;20510;-92
2023/07/09 12:09:33;;;;;;;7.43;4.90;;;25.60;94.30;;;;;;4977793;28;20552;-93
2023/07/09 12:12:00;;;;;;;6.03;5.00;;;25.60;94.40;;;;;;4978663;28;20543;-92
2023/07/09 12:14:27;;;;;;;7.00;5.00;;;25.60;94.50;;;;;;4978756;28;20459;-91
2023/07/09 12:16:55;;;;;;;8.10;6.13;;;25.60;94.70;;;;;;4980089;28;20452;-92
2023/07/09 12:19:25;;;;;;;6.07;5.47;;;25.60;94.60;;;;;;4996463;28;20495;-82
2023/07/09 12:21:56;;;;;;;4.93;4.10;;;25.60;94.60;;;;;;4996075;28;20949;-89
2023/07/09 12:24:24;;;;;;;7.23;4.37;;;25.60;94.50;;;;;;4996282;28;20444;-82
2023/07/09 12:26:53;;;;;;;6.90;5.17;;;25.60;94.30;;;;;;4995961;28;20486;-82
2023/07/09 12:29:19;;;;;;;5.53;5.03;;;25.60;94.20;;;;;;4996179;28;20455;-81
2023/07/09 12:31:47;;;;;;;8.03;4.70;;;25.50;94.20;;;;;;4996551;28;20448;-89
2023/07/09 12:34:15;;;;;;;6.70;4.33;;;25.50;94.30;;;;;;4996129;28;20443;-87
2023/07/09 12:36:47;;;;;;;5.13;4.33;;;25.50;94.30;;;;;;4996211;28;20491;-83
2023/07/09 12:39:17;;;;;;;5.70;4.80;;;25.50;94.30;;;;;;4995917;28;20445;-86
2023/07/09 12:41:45;;;;;;;5.13;4.47;;;25.50;94.40;;;;;;4985149;28;20444;-86
2023/07/09 12:44:18;;;;;;;4.00;3.70;;;25.50;94.40;;;;;;4976538;28;20446;-82
2023/07/09 12:46:46;;;;;;;4.60;4.20;;;25.50;94.30;;;;;;4976796;28;20496;-87
2023/07/09 12:49:23;;;;;;;4.93;4.43;;;25.50;94.20;;;;;;4981011;28;20468;-82
2023/07/09 12:51:51;;;;;;;4.17;3.77;;;25.50;94.30;;;;;;4995781;28;20502;-81
2023/07/09 12:54:22;;;;;;;5.10;4.47;;;25.50;94.10;;;;;;4993452;28;20453;-83
2023/07/09 12:56:52;;;;;;;5.27;4.27;;;25.50;94.20;;;;;;4995629;28;20857;-81
2023/07/09 12:59:21;;;;;;;5.13;4.13;;;25.50;94.10;;;;;;4997292;28;20443;-82
2023/07/09 13:02:01;;;;;;;5.17;4.70;;;25.50;94.10;;;;;;4996321;28;20439;-81
2023/07/09 13:04:32;;;;;;;6.50;4.60;;;25.70;94.20;;;;;;5008064;28;20540;-81
2023/07/09 13:07:00;;;;;;;7.17;4.30;;;25.50;94.10;;;;;;5007086;28;20812;-81
2023/07/09 13:09:28;;;;;;;5.10;4.27;;;25.50;94.10;;;;;;5007470;28;20446;-83
2023/07/09 13:11:55;;;;;;;5.63;4.40;;;25.50;94.10;;;;;;5007095;28;20436;-82
2023/07/09 13:14:24;;;;;;;4.70;3.90;;;25.50;94.20;;;;;;5002748;28;20450;-81
2023/07/09 13:16:52;;;;;;;4.97;4.30;;;25.50;94.20;;;;;;5002201;28;20449;-81
2023/07/09 13:19:19;;;;;;;5.60;4.60;;;25.50;94.30;;;;;;4999187;28;20863;-81
2023/07/09 13:21:47;;;;;;;5.20;4.50;;;25.50;94.30;;;;;;5007699;28;20431;-81
2023/07/09 13:24:20;;;;;;;5.67;5.00;;;25.50;94.30;;;;;;5003553;28;20444;-86
2023/07/09 13:26:51;;;;;;;5.60;4.83;;;25.50;94.40;;;;;;5010050;28;20593;-81
2023/07/09 13:29:20;;;;;;;5.87;4.03;;;25.50;94.50;;;;;;5006797;28;20818;-82
2023/07/09 13:31:48;;;;;;;7.40;4.77;;;25.50;94.50;;;;;;4998190;28;20504;-81
2023/07/09 13:34:21;;;;;;;5.87;4.20;;;25.50;94.50;;;;;;4994934;28;20455;-81
2023/07/09 13:36:49;;;;;;;11.40;5.40;;;25.50;94.60;;;;;;4995037;28;20443;-81
2023/07/09 13:39:18;;;;;;;5.47;4.87;;;25.50;94.70;;;;;;4995029;28;20590;-83
2023/07/09 13:41:45;;;;;;;6.70;3.80;;;25.50;94.90;;;;;;4994796;28;20436;-82
2023/07/09 13:44:14;;;;;;;5.73;4.00;;;25.50;94.80;;;;;;4994795;28;20440;-81
2023/07/09 13:46:42;;;;;;;5.10;3.70;;;25.50;94.70;;;;;;4994716;28;21074;-82
2023/07/09 13:49:11;;;;;;;10.40;3.73;;;25.50;94.70;;;;;;4994229;28;20464;-86
2023/07/09 13:51:38;;;;;;;4.57;4.00;;;25.50;94.90;;;;;;4994845;28;20453;-81
2023/07/09 13:54:15;;;;;;;5.50;4.33;;;25.50;94.90;;;;;;4994468;28;20503;-82
2023/07/09 13:56:44;;;;;;;7.40;4.00;;;25.50;95.00;;;;;;4994449;28;20447;-82
2023/07/09 13:59:16;;;;;;;4.17;3.80;;;25.50;94.90;;;;;;4994324;28;20467;-82
2023/07/09 14:01:43;;;;;;;4.33;3.67;;;25.50;94.80;;;;;;4994326;28;20437;-81
2023/07/09 14:04:12;;;;;;;4.80;3.63;;;25.50;94.90;;;;;;4994391;28;21001;-81
2023/07/09 14:06:39;;;;;;;5.03;3.47;;;25.50;94.70;;;;;;4994014;28;20491;-81
2023/07/09 14:09:07;;;;;;;3.87;3.53;;;25.70;94.80;;;;;;4994166;28;20448;-81
2023/07/09 14:11:34;;;;;;;6.17;4.03;;;25.50;94.70;;;;;;4994302;28;20448;-85
2023/07/09 14:14:03;;;;;;;4.17;3.60;;;25.50;94.70;;;;;;4994112;28;20451;-82
2023/07/09 14:16:30;;;;;;;7.77;4.00;;;25.50;94.60;;;;;;4994314;28;20444;-79
2023/07/09 14:18:57;;;;;;;5.80;4.00;;;25.50;94.60;;;;;;4994384;28;20483;-82
2023/07/09 14:21:27;;;;;;;5.97;3.93;;;25.50;94.50;;;;;;4993944;28;20444;-82
2023/07/09 14:23:53;;;;;;;5.50;3.70;;;25.50;94.50;;;;;;4992583;28;20501;-82
2023/07/09 14:26:20;;;;;;;4.83;4.00;;;25.50;94.50;;;;;;4994146;28;20491;-82
2023/07/09 14:28:47;;;;;;;71.40;19.33;;;25.50;94.40;;;;;;4993829;28;20933;-83
2023/07/09 14:31:22;;;;;;;98.60;31.70;;;25.50;94.50;;;;;;4993229;28;20447;-82
2023/07/09 14:33:50;;;;;;;99.13;30.97;;;25.50;94.90;;;;;;4995111;28;20927;-90
2023/07/09 14:39:33;;;;;;;119.03;37.40;;;25.50;95.50;;;;;;4994016;28;20450;-94
2023/07/09 14:42:00;;;;;;;105.13;34.13;;;25.60;95.50;;;;;;4992544;28;20790;-91
2023/07/09 15:11:34;;;;;;;147.87;94.90;;;25.60;95.60;;;;;;4895655;29;20474;-83
2023/07/09 15:14:03;;;;;;;223.17;161.00;;;25.60;96.50;;;;;;4899898;29;21027;-82
2023/07/09 15:16:30;;;;;;;192.57;134.00;;;25.60;97.00;;;;;;4919559;29;20442;-81
2023/07/09 15:18:56;;;;;;;169.47;108.30;;;25.60;96.40;;;;;;4957414;29;20482;-81
2023/07/09 15:21:23;;;;;;;158.47;116.53;;;25.60;96.40;;;;;;4957075;29;20454;-81
2023/07/09 15:23:50;;;;;;;172.43;125.60;;;25.60;96.10;;;;;;4954782;29;20448;-88
2023/07/09 15:26:18;;;;;;;166.10;120.30;;;25.60;96.20;;;;;;4956830;29;20484;-82
2023/07/09 15:28:49;;;;;;;171.67;123.63;;;25.60;96.50;;;;;;4953490;29;20446;-82
2023/07/09 15:31:17;;;;;;;182.13;126.80;;;25.60;96.10;;;;;;4971015;28;20942;-82
2023/07/09 15:33:44;;;;;;;169.90;122.97;;;25.60;96.30;;;;;;4998536;28;20449;-83
2023/07/09 15:36:12;;;;;;;154.50;122.40;;;25.60;96.30;;;;;;4996847;28;20449;-82
2023/07/09 15:38:40;;;;;;;133.53;101.00;;;25.60;96.20;;;;;;4994633;28;20450;-83
2023/07/09 15:41:12;;;;;;;152.83;110.00;;;25.80;96.60;;;;;;4996029;28;20929;-82
2023/07/09 15:43:39;;;;;;;130.80;104.63;;;25.60;96.70;;;;;;4998510;28;20450;-83
2023/07/09 15:46:05;;;;;;;113.93;92.07;;;25.60;96.20;;;;;;4999894;28;20450;-82
2023/07/09 15:48:35;;;;;;;116.13;84.83;;;25.60;96.00;;;;;;4997737;28;20469;-96
2023/07/09 15:51:03;;;;;;;107.17;74.77;;;25.60;96.10;;;;;;5000996;28;20458;-88
2023/07/09 15:53:31;;;;;;;95.23;69.70;;;25.60;96.40;;;;;;5002722;28;20449;-89
2023/07/09 15:56:00;;;;;;;93.33;67.20;;;25.60;97.40;;;;;;5001259;28;20582;-89
2023/07/09 15:58:31;;;;;;;91.10;69.00;;;25.70;97.90;;;;;;5001745;28;20454;-89
2023/07/09 16:00:58;;;;;;;91.07;70.10;;;25.70;98.30;;;;;;5000881;28;20521;-89
2023/07/09 16:03:25;;;;;;;101.20;74.40;;;25.70;98.30;;;;;;5001248;28;20533;-89
2023/07/09 16:05:53;;;;;;;101.63;82.67;;;25.70;98.20;;;;;;4998726;28;20452;-94
2023/07/09 16:08:20;;;;;;;83.97;67.13;;;25.70;98.50;;;;;;4997917;28;20497;-88
2023/07/09 16:10:47;;;;;;;90.87;65.97;;;25.70;98.30;;;;;;4998351;28;20971;-93
2023/07/09 16:13:19;;;;;;;77.87;62.50;;;25.70;98.60;;;;;;4997624;28;20465;-89
2023/07/09 16:15:46;;;;;;;82.13;67.00;;;25.80;98.90;;;;;;4997437;28;20479;-95
2023/07/09 16:18:12;;;;;;;117.40;88.07;;;25.80;98.90;;;;;;4996566;28;20818;-92
2023/07/09 16:20:39;;;;;;;100.23;81.13;;;25.80;98.60;;;;;;4997508;28;20456;-90
2023/07/09 16:23:15;;;;;;;92.00;77.50;;;25.80;98.90;;;;;;4997080;28;20477;-90
2023/07/09 16:25:42;;;;;;;78.00;65.97;;;25.80;98.80;;;;;;4997137;28;21019;-94
2023/07/09 16:28:13;;;;;;;65.53;55.37;;;25.80;98.60;;;;;;4996546;28;20501;-89
2023/07/09 16:30:40;;;;;;;65.33;48.63;;;25.80;98.60;;;;;;4997194;28;20441;-93
2023/07/09 16:33:07;;;;;;;40.80;36.43;;;25.80;98.90;;;;;;4996655;28;20447;-90
2023/07/09 16:35:34;;;;;;;34.60;24.17;;;25.80;99.10;;;;;;4997367;28;20560;-89
2023/07/09 16:38:01;;;;;;;29.73;22.10;;;25.80;99.80;;;;;;4996378;28;20463;-89
2023/07/09 16:40:31;;;;;;;24.73;21.40;;;25.80;99.90;;;;;;4996675;28;20448;-90
2023/07/09 16:43:01;;;;;;;31.70;25.37;;;25.80;99.90;;;;;;4981632;28;20467;-90
2023/07/09 16:45:29;;;;;;;27.63;23.77;;;25.80;99.90;;;;;;4977273;28;20835;-89
2023/07/09 16:47:56;;;;;;;26.97;21.70;;;25.80;99.50;;;;;;4976873;28;20476;-94
2023/07/09 16:50:25;;;;;;;19.23;17.10;;;25.80;99.40;;;;;;4977205;28;20446;-90
2023/07/09 16:52:54;;;;;;;21.87;16.83;;;25.80;99.90;;;;;;4976567;28;20791;-89
2023/07/09 16:55:23;;;;;;;21.27;16.63;;;25.90;99.90;;;;;;4976759;28;20492;-89
2023/07/09 16:57:54;;;;;;;19.33;16.60;;;25.90;99.90;;;;;;4977166;28;20453;-90
2023/07/09 17:00:29;;;;;;;15.10;12.87;;;25.80;99.90;;;;;;4977291;28;20450;-90
2023/07/09 17:02:58;;;;;;;16.27;13.87;;;25.80;99.80;;;;;;4977056;28;21004;-94
2023/07/09 17:05:26;;;;;;;15.90;13.47;;;25.80;99.50;;;;;;4977304;28;20454;-94
2023/07/09 17:07:53;;;;;;;23.37;17.20;;;25.80;99.70;;;;;;4976728;28;20503;-95
2023/07/09 17:10:20;;;;;;;13.83;12.20;;;25.80;99.80;;;;;;4976752;28;20482;-94
2023/07/09 17:12:53;;;;;;;13.47;10.10;;;25.80;99.80;;;;;;4976838;28;20540;-91
2023/07/09 17:15:23;;;;;;;12.40;11.10;;;25.80;99.90;;;;;;4976352;28;20848;-91
2023/07/09 17:17:53;;;;;;;13.83;9.17;;;25.80;99.90;;;;;;4967929;28;21020;-95
2023/07/09 17:20:20;;;;;;;13.73;10.10;;;25.80;99.90;;;;;;4956914;29;20953;-91
2023/07/09 17:22:48;;;;;;;10.90;9.30;;;25.80;99.90;;;;;;4956722;29;20451;-95
2023/07/09 17:25:27;;;;;;;10.93;9.10;;;25.80;99.90;;;;;;4957000;29;20452;-94
2023/07/09 17:27:56;;;;;;;10.90;9.60;;;25.80;99.90;;;;;;4956691;29;20491;-89
2023/07/09 17:30:23;;;;;;;31.40;23.90;;;25.80;99.90;;;;;;4956792;29;20448;-94
2023/07/09 17:32:50;;;;;;;17.90;13.20;;;25.80;99.70;;;;;;4956678;29;20458;-91
2023/07/09 17:35:17;;;;;;;13.87;9.23;;;25.80;99.90;;;;;;4956830;29;20453;-94
2023/07/09 17:37:48;;;;;;;13.20;8.63;;;25.80;99.90;;;;;;4972632;28;20452;-95
2023/07/09 17:40:18;;;;;;;9.77;7.20;;;25.80;99.90;;;;;;4976228;28;20447;-95
2023/07/09 17:42:45;;;;;;;9.40;8.37;;;25.80;99.90;;;;;;4976341;28;20445;-94
2023/07/09 17:45:14;;;;;;;10.23;8.60;;;25.90;99.90;;;;;;4975983;28;20973;-94
2023/07/09 17:47:42;;;;;;;11.20;7.37;;;25.80;99.90;;;;;;4975692;28;20493;-91
2023/07/09 17:50:14;;;;;;;12.40;6.40;;;25.80;99.90;;;;;;4975721;28;20446;-93
2023/07/09 17:52:41;;;;;;;8.67;7.17;;;25.90;99.90;;;;;;4976104;28;20438;-90
2023/07/09 17:55:08;;;;;;;8.10;6.40;;;25.90;99.90;;;;;;4975914;28;20452;-91
2023/07/09 17:57:35;;;;;;;8.70;6.60;;;25.90;99.90;;;;;;4975422;28;20466;-89
2023/07/09 18:00:02;;;;;;;9.70;5.80;;;25.90;99.90;;;;;;4975811;28;20450;-90
2023/07/09 18:02:33;;;;;;;6.37;5.77;;;25.90;99.90;;;;;;4975460;28;20501;-92
2023/07/09 18:05:00;;;;;;;7.57;5.73;;;25.90;99.90;;;;;;4974745;28;20452;-90
2023/07/09 18:07:30;;;;;;;6.60;5.90;;;25.90;99.90;;;;;;4960865;28;20483;-93
2023/07/09 18:09:59;;;;;;;6.50;5.80;;;25.90;99.90;;;;;;4965606;29;20457;-90
2023/07/09 18:12:28;;;;;;;6.60;5.40;;;25.90;99.90;;;;;;4953285;29;20471;-92
2023/07/09 18:14:58;;;;;;;8.17;5.17;;;25.90;99.90;;;;;;4972118;29;20447;-94
2023/07/09 18:17:32;;;;;;;8.50;5.73;;;25.90;99.90;;;;;;4957516;28;20489;-91
2023/07/09 18:19:59;;;;;;;6.37;5.37;;;25.90;99.90;;;;;;4957392;28;21014;-93
2023/07/09 18:22:30;;;;;;;7.23;5.60;;;25.90;99.90;;;;;;4956301;29;20459;-93
2023/07/09 18:24:58;;;;;;;5.53;5.03;;;25.90;99.90;;;;;;4956230;29;20431;-93
2023/07/09 18:27:27;;;;;;;5.37;4.87;;;25.90;99.90;;;;;;4955622;29;20495;-90
2023/07/09 18:29:55;;;;;;;5.67;5.13;;;25.90;99.90;;;;;;4955992;29;20448;-91
2023/07/09 18:32:24;;;;;;;6.20;5.00;;;25.90;99.90;;;;;;4955657;29;20448;-93
2023/07/09 18:34:56;;;;;;;5.43;4.93;;;25.90;99.90;;;;;;4955852;29;20449;-90
2023/07/09 18:37:23;;;;;;;5.23;4.73;;;25.90;99.90;;;;;;4955803;29;20915;-93
2023/07/09 18:39:51;;;;;;;5.83;4.90;;;25.90;99.90;;;;;;4955368;29;20454;-93
2023/07/09 18:42:20;;;;;;;5.80;5.30;;;25.90;99.90;;;;;;4955954;29;20970;-92
2023/07/09 18:44:47;;;;;;;4.63;4.30;;;25.90;99.90;;;;;;4961826;28;20445;-93
2023/07/09 18:47:16;;;;;;;5.07;4.53;;;25.90;99.90;;;;;;4974898;28;20995;-92
2023/07/09 18:49:44;;;;;;;5.57;4.87;;;25.90;99.90;;;;;;4975132;28;20497;-92
2023/07/09 18:52:16;;;;;;;5.40;4.53;;;25.90;99.90;;;;;;4975464;28;20451;-91
2023/07/09 18:54:45;;;;;;;5.03;4.13;;;25.90;99.90;;;;;;4977211;28;20445;-93
2023/07/09 18:57:15;;;;;;;6.00;4.97;;;25.90;99.90;;;;;;4982769;28;20560;-91
2023/07/09 18:59:42;;;;;;;5.83;5.23;;;25.90;99.90;;;;;;4982403;28;20474;-93
2023/07/09 19:02:17;;;;;;;6.83;4.90;;;25.90;99.90;;;;;;4983482;28;20547;-93
2023/07/09 19:04:46;;;;;;;5.20;4.77;;;25.90;99.90;;;;;;4981015;28;20799;-92
2023/07/09 19:07:17;;;;;;;6.30;4.63;;;25.90;99.90;;;;;;4982705;28;20444;-93
2023/07/09 19:09:45;;;;;;;9.00;4.50;;;25.90;99.90;;;;;;4982294;28;20431;-94
2023/07/09 19:12:13;;;;;;;8.90;5.00;;;26.10;99.90;;;;;;4961533;28;20477;-89
2023/07/09 19:14:41;;;;;;;7.77;5.80;;;26.00;99.90;;;;;;4977476;28;20460;-92
2023/07/09 19:17:13;;;;;;;7.00;4.93;;;25.90;99.90;;;;;;4961863;28;20450;-93
2023/07/09 19:19:42;;;;;;;5.50;4.77;;;25.90;99.90;;;;;;4980726;28;20467;-92
2023/07/09 19:22:12;;;;;;;5.37;4.87;;;25.90;99.90;;;;;;4980913;28;20447;-93
2023/07/09 19:24:44;;;;;;;9.23;5.47;;;25.90;99.90;;;;;;4981615;28;20454;-94
2023/07/09 19:27:11;;;;;;;11.40;4.60;;;25.90;99.90;;;;;;4981267;28;20478;-92
2023/07/09 19:29:40;;;;;;;17.37;14.20;;;25.90;99.90;;;;;;4961382;28;20454;-82
2023/07/09 19:32:15;;;;;;;22.27;19.03;;;25.90;99.80;;;;;;4964810;28;20438;-81
2023/07/09 19:34:42;;;;;;;23.80;20.47;;;25.80;99.20;;;;;;4977403;28;20455;-82
2023/07/09 19:37:19;;;;;;;23.87;21.37;;;25.80;99.00;;;;;;4981114;28;20452;-94
2023/07/09 19:39:48;;;;;;;25.50;20.90;;;25.80;98.80;;;;;;4965975;28;20538;-84
2023/07/09 19:42:17;;;;;;;21.73;18.60;;;25.80;98.90;;;;;;4960132;29;20841;-84
2023/07/09 19:44:45;;;;;;;20.83;17.07;;;25.80;98.80;;;;;;4958708;29;20440;-89
2023/07/09 19:47:18;;;;;;;19.73;16.83;;;25.80;98.70;;;;;;4958938;29;20438;-81
2023/07/09 19:49:49;;;;;;;16.73;15.03;;;25.80;99.10;;;;;;4960510;29;20549;-83
2023/07/09 19:52:20;;;;;;;17.20;15.40;;;25.80;98.90;;;;;;4959858;28;20504;-83
2023/07/09 19:54:48;;;;;;;16.93;14.80;;;25.80;98.30;;;;;;4959240;29;20550;-84
2023/07/09 19:57:17;;;;;;;15.60;13.90;;;25.80;98.20;;;;;;4974372;28;20811;-90
2023/07/09 19:59:44;;;;;;;18.37;14.27;;;25.80;98.10;;;;;;4978799;28;20442;-84
2023/07/09 20:02:20;;;;;;;20.50;14.20;;;25.80;98.10;;;;;;4978489;28;20461;-84
2023/07/09 20:04:46;;;;;;;14.17;12.67;;;25.80;98.00;;;;;;4979081;28;20464;-84
2023/07/09 20:07:15;;;;;;;15.90;12.07;;;25.80;98.10;;;;;;4979925;28;20551;-84
2023/07/09 20:09:46;;;;;;;13.60;12.23;;;25.80;98.00;;;;;;4978190;28;20490;-85
2023/07/09 20:12:19;;;;;;;13.17;11.17;;;25.80;97.90;;;;;;4979260;28;20457;-83
2023/07/09 20:14:47;;;;;;;15.83;12.20;;;25.80;97.90;;;;;;4978835;28;20450;-82
2023/07/09 20:17:17;;;;;;;11.57;10.13;;;25.80;98.00;;;;;;4981409;28;21027;-84
2023/07/09 20:19:48;;;;;;;12.60;10.90;;;25.80;98.00;;;;;;4979631;28;20477;-83
2023/07/09 20:22:28;;;;;;;13.97;10.83;;;25.70;98.00;;;;;;4981986;28;20482;-91
2023/07/09 20:24:58;;;;;;;11.90;10.63;;;25.80;98.00;;;;;;4984017;28;20514;-90
